sensor_id;sensor_type;location;lat;lon;timestamp;P1;durP1;ratioP1;P2;durP2;ratioP2
76194;SDS011;64964;48.694;21.206;2023-09-12T00:01:28;10.73;;;7.43;;
76194;SDS011;64964;48.694;21.206;2023-09-12T00:03:57;11.65;;;7.38;;
76194;SDS011;64964;48.694;21.206;2023-09-12T00:06:23;13.23;;;7.43;;
76194;SDS011;64964;48.694;21.206;2023-09-12T00:08:48;9.43;;;7.32;;
76194;SDS011;64964;48.694;21.206;2023-09-12T00:11:14;11.87;;;7.23;;
76194;SDS011;64964;48.694;21.206;2023-09-12T00:13:39;10.90;;;7.13;;
76194;SDS011;64964;48.694;21.206;2023-09-12T00:16:06;10.23;;;6.80;;
76194;SDS011;64964;48.694;21.206;2023-09-12T00:18:31;11.37;;;7.10;;
76194;SDS011;64964;48.694;21.206;2023-09-12T00:20:59;12.32;;;7.57;;
76194;SDS011;64964;48.694;21.206;2023-09-12T00:23:25;10.55;;;7.00;;
76194;SDS011;64964;48.694;21.206;2023-09-12T00:25:51;11.43;;;7.10;;
76194;SDS011;64964;48.694;21.206;2023-09-12T00:28:17;12.97;;;7.50;;
76194;SDS011;64964;48.694;21.206;2023-09-12T00:30:43;10.88;;;7.57;;
76194;SDS011;64964;48.694;21.206;2023-09-12T00:33:08;9.80;;;7.50;;
76194;SDS011;64964;48.694;21.206;2023-09-12T00:35:33;12.30;;;7.77;;
76194;SDS011;64964;48.694;21.206;2023-09-12T00:37:59;9.60;;;7.13;;
76194;SDS011;64964;48.694;21.206;2023-09-12T00:40:24;10.60;;;7.47;;
76194;SDS011;64964;48.694;21.206;2023-09-12T00:42:49;10.20;;;7.43;;
76194;SDS011;64964;48.694;21.206;2023-09-12T00:45:15;13.90;;;7.07;;
76194;SDS011;64964;48.694;21.206;2023-09-12T00:47:40;11.33;;;7.00;;
76194;SDS011;64964;48.694;21.206;2023-09-12T00:50:06;10.85;;;7.40;;
76194;SDS011;64964;48.694;21.206;2023-09-12T00:52:33;10.65;;;7.40;;
76194;SDS011;64964;48.694;21.206;2023-09-12T00:55:01;10.37;;;7.43;;
76194;SDS011;64964;48.694;21.206;2023-09-12T00:57:27;11.80;;;7.45;;
76194;SDS011;64964;48.694;21.206;2023-09-12T00:59:53;11.70;;;7.25;;
76194;SDS011;64964;48.694;21.206;2023-09-12T01:02:20;10.85;;;7.15;;
76194;SDS011;64964;48.694;21.206;2023-09-12T01:04:46;12.27;;;7.83;;
76194;SDS011;64964;48.694;21.206;2023-09-12T01:07:12;14.98;;;7.70;;
76194;SDS011;64964;48.694;21.206;2023-09-12T01:09:38;15.20;;;8.25;;
76194;SDS011;64964;48.694;21.206;2023-09-12T01:12:03;14.17;;;7.80;;
76194;SDS011;64964;48.694;21.206;2023-09-12T01:14:29;13.70;;;8.02;;
76194;SDS011;64964;48.694;21.206;2023-09-12T01:16:55;13.47;;;8.03;;
76194;SDS011;64964;48.694;21.206;2023-09-12T01:19:22;13.45;;;7.80;;
76194;SDS011;64964;48.694;21.206;2023-09-12T01:22:26;15.25;;;8.18;;
76194;SDS011;64964;48.694;21.206;2023-09-12T01:27:40;14.60;;;8.10;;
76194;SDS011;64964;48.694;21.206;2023-09-12T01:30:08;13.38;;;8.40;;
76194;SDS011;64964;48.694;21.206;2023-09-12T01:32:35;13.38;;;8.05;;
76194;SDS011;64964;48.694;21.206;2023-09-12T01:35:01;15.77;;;8.20;;
76194;SDS011;64964;48.694;21.206;2023-09-12T01:37:29;14.90;;;8.32;;
76194;SDS011;64964;48.694;21.206;2023-09-12T01:39:55;14.15;;;8.35;;
76194;SDS011;64964;48.694;21.206;2023-09-12T01:42:21;17.27;;;8.30;;
76194;SDS011;64964;48.694;21.206;2023-09-12T01:44:49;12.95;;;8.48;;
76194;SDS011;64964;48.694;21.206;2023-09-12T01:47:17;17.33;;;8.65;;
76194;SDS011;64964;48.694;21.206;2023-09-12T01:49:45;15.18;;;8.57;;
76194;SDS011;64964;48.694;21.206;2023-09-12T01:52:14;14.85;;;9.18;;
76194;SDS011;64964;48.694;21.206;2023-09-12T01:54:40;14.57;;;8.43;;
76194;SDS011;64964;48.694;21.206;2023-09-12T01:57:07;18.02;;;8.65;;
76194;SDS011;64964;48.694;21.206;2023-09-12T01:59:33;14.93;;;8.65;;
76194;SDS011;64964;48.694;21.206;2023-09-12T02:01:59;16.40;;;8.20;;
76194;SDS011;64964;48.694;21.206;2023-09-12T02:04:24;17.07;;;8.70;;
76194;SDS011;64964;48.694;21.206;2023-09-12T02:06:50;14.40;;;7.68;;
76194;SDS011;64964;48.694;21.206;2023-09-12T02:09:15;13.50;;;7.53;;
76194;SDS011;64964;48.694;21.206;2023-09-12T02:11:40;13.17;;;6.80;;
76194;SDS011;64964;48.694;21.206;2023-09-12T02:14:06;11.10;;;7.23;;
76194;SDS011;64964;48.694;21.206;2023-09-12T02:16:31;10.98;;;7.05;;
76194;SDS011;64964;48.694;21.206;2023-09-12T02:18:57;12.90;;;7.80;;
76194;SDS011;64964;48.694;21.206;2023-09-12T02:21:22;11.37;;;7.37;;
76194;SDS011;64964;48.694;21.206;2023-09-12T02:23:48;11.32;;;6.65;;
76194;SDS011;64964;48.694;21.206;2023-09-12T02:26:13;12.40;;;7.03;;
76194;SDS011;64964;48.694;21.206;2023-09-12T02:28:38;13.33;;;7.23;;
76194;SDS011;64964;48.694;21.206;2023-09-12T02:31:09;9.70;;;6.87;;
76194;SDS011;64964;48.694;21.206;2023-09-12T02:33:36;10.90;;;6.60;;
76194;SDS011;64964;48.694;21.206;2023-09-12T02:36:02;10.80;;;6.72;;
76194;SDS011;64964;48.694;21.206;2023-09-12T02:38:28;9.93;;;6.83;;
76194;SDS011;64964;48.694;21.206;2023-09-12T02:40:53;13.25;;;7.07;;
76194;SDS011;64964;48.694;21.206;2023-09-12T02:43:20;11.20;;;6.97;;
76194;SDS011;64964;48.694;21.206;2023-09-12T02:45:45;11.93;;;6.47;;
76194;SDS011;64964;48.694;21.206;2023-09-12T02:48:10;11.77;;;7.50;;
76194;SDS011;64964;48.694;21.206;2023-09-12T02:50:36;12.40;;;7.10;;
76194;SDS011;64964;48.694;21.206;2023-09-12T02:53:01;11.97;;;7.53;;
76194;SDS011;64964;48.694;21.206;2023-09-12T02:55:26;13.52;;;8.27;;
76194;SDS011;64964;48.694;21.206;2023-09-12T02:57:52;15.37;;;8.00;;
76194;SDS011;64964;48.694;21.206;2023-09-12T03:00:17;15.43;;;8.03;;
76194;SDS011;64964;48.694;21.206;2023-09-12T03:02:42;15.60;;;8.37;;
76194;SDS011;64964;48.694;21.206;2023-09-12T03:05:08;13.57;;;7.90;;
76194;SDS011;64964;48.694;21.206;2023-09-12T03:07:33;15.98;;;7.88;;
76194;SDS011;64964;48.694;21.206;2023-09-12T03:09:59;11.40;;;7.40;;
76194;SDS011;64964;48.694;21.206;2023-09-12T03:12:24;10.90;;;7.23;;
76194;SDS011;64964;48.694;21.206;2023-09-12T03:14:49;11.27;;;7.43;;
76194;SDS011;64964;48.694;21.206;2023-09-12T03:17:15;14.18;;;7.90;;
76194;SDS011;64964;48.694;21.206;2023-09-12T03:19:40;12.50;;;7.50;;
76194;SDS011;64964;48.694;21.206;2023-09-12T03:22:06;12.73;;;7.60;;
76194;SDS011;64964;48.694;21.206;2023-09-12T03:24:31;17.50;;;7.97;;
76194;SDS011;64964;48.694;21.206;2023-09-12T03:26:56;14.30;;;7.57;;
76194;SDS011;64964;48.694;21.206;2023-09-12T03:29:22;13.83;;;7.63;;
76194;SDS011;64964;48.694;21.206;2023-09-12T03:31:48;16.00;;;8.10;;
76194;SDS011;64964;48.694;21.206;2023-09-12T03:34:13;16.37;;;7.70;;
76194;SDS011;64964;48.694;21.206;2023-09-12T03:36:38;12.63;;;6.90;;
76194;SDS011;64964;48.694;21.206;2023-09-12T03:39:04;13.50;;;7.33;;
76194;SDS011;64964;48.694;21.206;2023-09-12T03:41:33;14.35;;;7.65;;
76194;SDS011;64964;48.694;21.206;2023-09-12T03:43:59;16.63;;;7.70;;
76194;SDS011;64964;48.694;21.206;2023-09-12T03:46:24;13.20;;;7.60;;
76194;SDS011;64964;48.694;21.206;2023-09-12T03:48:50;12.80;;;7.67;;
76194;SDS011;64964;48.694;21.206;2023-09-12T03:51:15;13.73;;;7.70;;
76194;SDS011;64964;48.694;21.206;2023-09-12T03:53:41;10.63;;;7.13;;
76194;SDS011;64964;48.694;21.206;2023-09-12T03:56:06;9.27;;;5.90;;
76194;SDS011;64964;48.694;21.206;2023-09-12T03:58:33;10.43;;;7.07;;
76194;SDS011;64964;48.694;21.206;2023-09-12T04:00:58;11.47;;;7.60;;
76194;SDS011;64964;48.694;21.206;2023-09-12T04:03:24;11.37;;;7.07;;
76194;SDS011;64964;48.694;21.206;2023-09-12T04:05:50;11.93;;;6.78;;
76194;SDS011;64964;48.694;21.206;2023-09-12T04:08:16;13.70;;;7.30;;
76194;SDS011;64964;48.694;21.206;2023-09-12T04:10:42;12.23;;;7.00;;
76194;SDS011;64964;48.694;21.206;2023-09-12T04:13:08;14.60;;;7.22;;
76194;SDS011;64964;48.694;21.206;2023-09-12T04:15:33;14.50;;;6.90;;
76194;SDS011;64964;48.694;21.206;2023-09-12T04:17:59;14.60;;;6.47;;
76194;SDS011;64964;48.694;21.206;2023-09-12T04:20:24;9.85;;;6.22;;
76194;SDS011;64964;48.694;21.206;2023-09-12T04:22:50;10.43;;;5.97;;
76194;SDS011;64964;48.694;21.206;2023-09-12T04:25:15;13.43;;;6.20;;
76194;SDS011;64964;48.694;21.206;2023-09-12T04:27:41;11.30;;;6.43;;
76194;SDS011;64964;48.694;21.206;2023-09-12T04:30:07;11.30;;;6.57;;
76194;SDS011;64964;48.694;21.206;2023-09-12T04:32:33;11.73;;;6.93;;
76194;SDS011;64964;48.694;21.206;2023-09-12T04:34:59;8.60;;;5.65;;
76194;SDS011;64964;48.694;21.206;2023-09-12T04:37:24;10.27;;;6.50;;
76194;SDS011;64964;48.694;21.206;2023-09-12T04:39:50;10.00;;;6.00;;
76194;SDS011;64964;48.694;21.206;2023-09-12T04:42:15;10.37;;;6.10;;
76194;SDS011;64964;48.694;21.206;2023-09-12T04:44:41;8.77;;;6.40;;
76194;SDS011;64964;48.694;21.206;2023-09-12T04:47:07;11.07;;;6.72;;
76194;SDS011;64964;48.694;21.206;2023-09-12T04:49:33;11.40;;;6.15;;
76194;SDS011;64964;48.694;21.206;2023-09-12T04:51:59;9.70;;;6.50;;
76194;SDS011;64964;48.694;21.206;2023-09-12T04:54:24;11.33;;;6.17;;
76194;SDS011;64964;48.694;21.206;2023-09-12T04:56:49;10.53;;;6.10;;
76194;SDS011;64964;48.694;21.206;2023-09-12T04:59:15;9.27;;;5.70;;
76194;SDS011;64964;48.694;21.206;2023-09-12T05:01:40;9.00;;;6.33;;
76194;SDS011;64964;48.694;21.206;2023-09-12T05:04:05;12.00;;;6.07;;
76194;SDS011;64964;48.694;21.206;2023-09-12T05:06:31;10.40;;;5.77;;
76194;SDS011;64964;48.694;21.206;2023-09-12T05:08:56;12.77;;;7.07;;
76194;SDS011;64964;48.694;21.206;2023-09-12T05:11:22;14.15;;;6.43;;
76194;SDS011;64964;48.694;21.206;2023-09-12T05:13:51;10.83;;;6.60;;
76194;SDS011;64964;48.694;21.206;2023-09-12T05:16:16;8.73;;;6.43;;
76194;SDS011;64964;48.694;21.206;2023-09-12T05:18:42;9.20;;;6.67;;
76194;SDS011;64964;48.694;21.206;2023-09-12T05:21:07;11.60;;;7.70;;
76194;SDS011;64964;48.694;21.206;2023-09-12T05:23:32;12.10;;;6.83;;
76194;SDS011;64964;48.694;21.206;2023-09-12T05:25:58;12.13;;;6.30;;
76194;SDS011;64964;48.694;21.206;2023-09-12T05:28:23;9.87;;;6.70;;
76194;SDS011;64964;48.694;21.206;2023-09-12T05:30:49;10.33;;;6.47;;
76194;SDS011;64964;48.694;21.206;2023-09-12T05:33:15;10.75;;;6.25;;
76194;SDS011;64964;48.694;21.206;2023-09-12T05:35:41;9.17;;;6.43;;
76194;SDS011;64964;48.694;21.206;2023-09-12T05:38:06;10.33;;;6.53;;
76194;SDS011;64964;48.694;21.206;2023-09-12T05:40:32;10.47;;;6.23;;
76194;SDS011;64964;48.694;21.206;2023-09-12T05:42:57;10.70;;;6.47;;
76194;SDS011;64964;48.694;21.206;2023-09-12T05:45:22;9.33;;;6.50;;
76194;SDS011;64964;48.694;21.206;2023-09-12T05:47:48;11.15;;;6.43;;
76194;SDS011;64964;48.694;21.206;2023-09-12T05:50:15;7.80;;;6.10;;
76194;SDS011;64964;48.694;21.206;2023-09-12T05:52:40;9.07;;;5.90;;
76194;SDS011;64964;48.694;21.206;2023-09-12T05:55:07;7.78;;;5.90;;
76194;SDS011;64964;48.694;21.206;2023-09-12T05:57:33;11.57;;;6.20;;
76194;SDS011;64964;48.694;21.206;2023-09-12T05:59:59;8.07;;;5.30;;
76194;SDS011;64964;48.694;21.206;2023-09-12T06:02:25;7.28;;;5.80;;
76194;SDS011;64964;48.694;21.206;2023-09-12T06:04:50;7.13;;;5.87;;
76194;SDS011;64964;48.694;21.206;2023-09-12T06:07:16;7.93;;;5.63;;
76194;SDS011;64964;48.694;21.206;2023-09-12T06:09:42;7.73;;;5.57;;
76194;SDS011;64964;48.694;21.206;2023-09-12T06:12:07;7.97;;;5.53;;
76194;SDS011;64964;48.694;21.206;2023-09-12T06:14:32;7.10;;;4.88;;
76194;SDS011;64964;48.694;21.206;2023-09-12T06:16:58;7.37;;;5.40;;
76194;SDS011;64964;48.694;21.206;2023-09-12T06:19:23;7.43;;;4.67;;
76194;SDS011;64964;48.694;21.206;2023-09-12T06:21:49;7.63;;;4.88;;
76194;SDS011;64964;48.694;21.206;2023-09-12T06:24:18;8.43;;;4.83;;
76194;SDS011;64964;48.694;21.206;2023-09-12T06:26:48;8.73;;;5.18;;
76194;SDS011;64964;48.694;21.206;2023-09-12T06:29:13;7.97;;;5.50;;
76194;SDS011;64964;48.694;21.206;2023-09-12T06:31:40;7.73;;;5.10;;
76194;SDS011;64964;48.694;21.206;2023-09-12T06:34:08;7.35;;;4.72;;
76194;SDS011;64964;48.694;21.206;2023-09-12T06:36:34;7.32;;;5.00;;
76194;SDS011;64964;48.694;21.206;2023-09-12T06:39:00;8.70;;;4.68;;
76194;SDS011;64964;48.694;21.206;2023-09-12T06:41:26;8.57;;;4.80;;
76194;SDS011;64964;48.694;21.206;2023-09-12T06:43:52;9.60;;;5.20;;
76194;SDS011;64964;48.694;21.206;2023-09-12T06:46:18;7.22;;;5.03;;
76194;SDS011;64964;48.694;21.206;2023-09-12T06:48:44;9.25;;;4.82;;
76194;SDS011;64964;48.694;21.206;2023-09-12T06:51:10;8.23;;;5.07;;
76194;SDS011;64964;48.694;21.206;2023-09-12T06:53:36;8.63;;;4.60;;
76194;SDS011;64964;48.694;21.206;2023-09-12T06:56:02;7.90;;;5.00;;
76194;SDS011;64964;48.694;21.206;2023-09-12T06:58:28;10.88;;;5.15;;
76194;SDS011;64964;48.694;21.206;2023-09-12T07:00:54;7.13;;;5.20;;
76194;SDS011;64964;48.694;21.206;2023-09-12T07:03:19;8.73;;;5.70;;
76194;SDS011;64964;48.694;21.206;2023-09-12T07:05:44;8.20;;;5.60;;
76194;SDS011;64964;48.694;21.206;2023-09-12T07:08:10;8.23;;;4.90;;
76194;SDS011;64964;48.694;21.206;2023-09-12T07:10:35;7.23;;;4.80;;
76194;SDS011;64964;48.694;21.206;2023-09-12T07:13:01;7.05;;;4.97;;
76194;SDS011;64964;48.694;21.206;2023-09-12T07:15:27;8.63;;;4.90;;
76194;SDS011;64964;48.694;21.206;2023-09-12T07:17:53;9.10;;;4.82;;
76194;SDS011;64964;48.694;21.206;2023-09-12T07:20:18;6.87;;;4.90;;
76194;SDS011;64964;48.694;21.206;2023-09-12T07:22:45;6.78;;;4.45;;
76194;SDS011;64964;48.694;21.206;2023-09-12T07:25:11;6.13;;;4.90;;
76194;SDS011;64964;48.694;21.206;2023-09-12T07:27:38;12.55;;;5.32;;
76194;SDS011;64964;48.694;21.206;2023-09-12T07:30:04;9.43;;;5.03;;
76194;SDS011;64964;48.694;21.206;2023-09-12T07:32:31;8.57;;;4.80;;
76194;SDS011;64964;48.694;21.206;2023-09-12T07:34:56;8.60;;;5.03;;
76194;SDS011;64964;48.694;21.206;2023-09-12T07:37:21;6.63;;;4.67;;
76194;SDS011;64964;48.694;21.206;2023-09-12T07:39:47;10.97;;;5.40;;
76194;SDS011;64964;48.694;21.206;2023-09-12T07:42:12;8.30;;;4.63;;
76194;SDS011;64964;48.694;21.206;2023-09-12T07:44:37;7.77;;;5.80;;
76194;SDS011;64964;48.694;21.206;2023-09-12T07:47:03;7.72;;;5.07;;
76194;SDS011;64964;48.694;21.206;2023-09-12T07:49:28;6.97;;;5.20;;
76194;SDS011;64964;48.694;21.206;2023-09-12T07:51:54;7.47;;;5.30;;
76194;SDS011;64964;48.694;21.206;2023-09-12T07:54:21;7.38;;;5.55;;
76194;SDS011;64964;48.694;21.206;2023-09-12T07:56:47;10.10;;;5.30;;
76194;SDS011;64964;48.694;21.206;2023-09-12T07:59:12;8.18;;;5.60;;
76194;SDS011;64964;48.694;21.206;2023-09-12T08:01:39;10.30;;;5.53;;
76194;SDS011;64964;48.694;21.206;2023-09-12T08:04:04;10.20;;;4.70;;
76194;SDS011;64964;48.694;21.206;2023-09-12T08:06:30;10.90;;;5.57;;
76194;SDS011;64964;48.694;21.206;2023-09-12T08:08:56;7.32;;;5.63;;
76194;SDS011;64964;48.694;21.206;2023-09-12T08:11:21;9.80;;;6.37;;
76194;SDS011;64964;48.694;21.206;2023-09-12T08:13:48;7.93;;;5.67;;
76194;SDS011;64964;48.694;21.206;2023-09-12T08:16:14;10.33;;;6.73;;
76194;SDS011;64964;48.694;21.206;2023-09-12T08:18:40;8.38;;;6.18;;
76194;SDS011;64964;48.694;21.206;2023-09-12T08:21:05;10.10;;;5.70;;
76194;SDS011;64964;48.694;21.206;2023-09-12T08:23:30;9.27;;;6.40;;
76194;SDS011;64964;48.694;21.206;2023-09-12T08:25:56;10.67;;;6.93;;
76194;SDS011;64964;48.694;21.206;2023-09-12T08:28:21;9.90;;;6.25;;
76194;SDS011;64964;48.694;21.206;2023-09-12T08:30:47;9.40;;;6.50;;
76194;SDS011;64964;48.694;21.206;2023-09-12T08:33:12;8.47;;;5.93;;
76194;SDS011;64964;48.694;21.206;2023-09-12T08:35:38;10.95;;;6.63;;
76194;SDS011;64964;48.694;21.206;2023-09-12T08:38:03;15.83;;;7.70;;
76194;SDS011;64964;48.694;21.206;2023-09-12T08:40:28;11.60;;;7.13;;
76194;SDS011;64964;48.694;21.206;2023-09-12T08:42:55;11.43;;;6.03;;
76194;SDS011;64964;48.694;21.206;2023-09-12T08:45:22;13.63;;;7.32;;
76194;SDS011;64964;48.694;21.206;2023-09-12T08:47:51;14.53;;;6.63;;
76194;SDS011;64964;48.694;21.206;2023-09-12T08:50:18;12.98;;;6.75;;
76194;SDS011;64964;48.694;21.206;2023-09-12T08:52:46;11.38;;;6.43;;
76194;SDS011;64964;48.694;21.206;2023-09-12T08:55:12;17.63;;;7.30;;
76194;SDS011;64964;48.694;21.206;2023-09-12T08:57:38;9.93;;;6.70;;
76194;SDS011;64964;48.694;21.206;2023-09-12T09:00:05;10.50;;;6.40;;
76194;SDS011;64964;48.694;21.206;2023-09-12T09:02:32;11.48;;;6.57;;
76194;SDS011;64964;48.694;21.206;2023-09-12T09:04:58;13.52;;;6.60;;
76194;SDS011;64964;48.694;21.206;2023-09-12T09:07:25;9.90;;;5.82;;
76194;SDS011;64964;48.694;21.206;2023-09-12T09:09:52;14.80;;;6.95;;
76194;SDS011;64964;48.694;21.206;2023-09-12T09:12:18;17.80;;;7.50;;
76194;SDS011;64964;48.694;21.206;2023-09-12T09:14:44;8.75;;;5.72;;
76194;SDS011;64964;48.694;21.206;2023-09-12T09:17:10;10.90;;;6.10;;
76194;SDS011;64964;48.694;21.206;2023-09-12T09:19:41;11.57;;;6.50;;
76194;SDS011;64964;48.694;21.206;2023-09-12T09:22:07;10.18;;;5.82;;
76194;SDS011;64964;48.694;21.206;2023-09-12T09:24:32;8.70;;;5.67;;
76194;SDS011;64964;48.694;21.206;2023-09-12T09:26:58;16.63;;;7.30;;
76194;SDS011;64964;48.694;21.206;2023-09-12T09:29:25;13.00;;;7.05;;
76194;SDS011;64964;48.694;21.206;2023-09-12T09:31:51;11.57;;;7.07;;
76194;SDS011;64964;48.694;21.206;2023-09-12T09:34:18;10.48;;;6.05;;
76194;SDS011;64964;48.694;21.206;2023-09-12T09:36:48;12.10;;;6.93;;
76194;SDS011;64964;48.694;21.206;2023-09-12T09:39:21;16.08;;;7.68;;
76194;SDS011;64964;48.694;21.206;2023-09-12T09:41:48;16.47;;;8.00;;
76194;SDS011;64964;48.694;21.206;2023-09-12T09:44:15;22.77;;;8.10;;
76194;SDS011;64964;48.694;21.206;2023-09-12T09:46:44;15.38;;;6.72;;
76194;SDS011;64964;48.694;21.206;2023-09-12T09:49:11;15.48;;;6.60;;
76194;SDS011;64964;48.694;21.206;2023-09-12T09:51:42;20.65;;;8.68;;
76194;SDS011;64964;48.694;21.206;2023-09-12T09:54:08;27.27;;;10.90;;
76194;SDS011;64964;48.694;21.206;2023-09-12T09:56:44;25.08;;;11.48;;
76194;SDS011;64964;48.694;21.206;2023-09-12T09:59:13;21.42;;;10.77;;
76194;SDS011;64964;48.694;21.206;2023-09-12T10:01:41;24.08;;;11.07;;
76194;SDS011;64964;48.694;21.206;2023-09-12T10:04:08;27.30;;;10.32;;
76194;SDS011;64964;48.694;21.206;2023-09-12T10:06:33;18.93;;;10.07;;
76194;SDS011;64964;48.694;21.206;2023-09-12T10:09:02;18.40;;;8.13;;
76194;SDS011;64964;48.694;21.206;2023-09-12T10:11:31;16.30;;;8.70;;
76194;SDS011;64964;48.694;21.206;2023-09-12T10:14:01;15.25;;;7.82;;
76194;SDS011;64964;48.694;21.206;2023-09-12T10:16:35;11.50;;;5.67;;
76194;SDS011;64964;48.694;21.206;2023-09-12T10:19:23;13.43;;;6.43;;
76194;SDS011;64964;48.694;21.206;2023-09-12T10:21:54;14.13;;;7.40;;
76194;SDS011;64964;48.694;21.206;2023-09-12T10:24:30;12.13;;;7.00;;
76194;SDS011;64964;48.694;21.206;2023-09-12T10:26:56;15.10;;;6.82;;
76194;SDS011;64964;48.694;21.206;2023-09-12T10:29:23;17.38;;;7.47;;
76194;SDS011;64964;48.694;21.206;2023-09-12T10:31:48;13.00;;;6.50;;
76194;SDS011;64964;48.694;21.206;2023-09-12T10:34:14;16.33;;;7.10;;
76194;SDS011;64964;48.694;21.206;2023-09-12T10:36:41;11.77;;;5.70;;
76194;SDS011;64964;48.694;21.206;2023-09-12T10:39:07;17.37;;;6.73;;
76194;SDS011;64964;48.694;21.206;2023-09-12T10:41:37;13.38;;;6.68;;
76194;SDS011;64964;48.694;21.206;2023-09-12T10:44:09;13.30;;;6.75;;
76194;SDS011;64964;48.694;21.206;2023-09-12T10:46:37;15.50;;;6.10;;
76194;SDS011;64964;48.694;21.206;2023-09-12T10:49:11;16.70;;;6.30;;
76194;SDS011;64964;48.694;21.206;2023-09-12T10:51:38;10.05;;;6.05;;
76194;SDS011;64964;48.694;21.206;2023-09-12T10:54:05;13.68;;;5.90;;
76194;SDS011;64964;48.694;21.206;2023-09-12T10:56:31;9.95;;;5.70;;
76194;SDS011;64964;48.694;21.206;2023-09-12T11:01:29;9.27;;;5.33;;
76194;SDS011;64964;48.694;21.206;2023-09-12T11:03:56;15.43;;;5.50;;
76194;SDS011;64964;48.694;21.206;2023-09-12T11:06:30;8.90;;;5.25;;
76194;SDS011;64964;48.694;21.206;2023-09-12T11:12:03;9.25;;;5.30;;
76194;SDS011;64964;48.694;21.206;2023-09-12T11:14:31;8.97;;;4.97;;
76194;SDS011;64964;48.694;21.206;2023-09-12T11:19:31;12.43;;;5.60;;
76194;SDS011;64964;48.694;21.206;2023-09-12T11:22:30;9.55;;;5.00;;
76194;SDS011;64964;48.694;21.206;2023-09-12T11:25:02;10.82;;;5.53;;
76194;SDS011;64964;48.694;21.206;2023-09-12T11:27:31;12.00;;;5.68;;
76194;SDS011;64964;48.694;21.206;2023-09-12T11:30:06;12.20;;;5.80;;
76194;SDS011;64964;48.694;21.206;2023-09-12T11:32:34;13.00;;;6.07;;
76194;SDS011;64964;48.694;21.206;2023-09-12T11:35:05;14.10;;;6.00;;
76194;SDS011;64964;48.694;21.206;2023-09-12T11:37:33;15.63;;;6.77;;
76194;SDS011;64964;48.694;21.206;2023-09-12T11:40:02;10.40;;;5.60;;
76194;SDS011;64964;48.694;21.206;2023-09-12T11:42:40;11.38;;;6.15;;
76194;SDS011;64964;48.694;21.206;2023-09-12T11:45:10;11.38;;;5.75;;
76194;SDS011;64964;48.694;21.206;2023-09-12T11:47:42;10.18;;;5.70;;
76194;SDS011;64964;48.694;21.206;2023-09-12T11:50:19;14.32;;;6.90;;
76194;SDS011;64964;48.694;21.206;2023-09-12T11:53:07;12.90;;;6.10;;
76194;SDS011;64964;48.694;21.206;2023-09-12T11:55:37;10.65;;;5.47;;
76194;SDS011;64964;48.694;21.206;2023-09-12T11:58:08;9.90;;;5.70;;
76194;SDS011;64964;48.694;21.206;2023-09-12T12:00:33;11.50;;;5.97;;
76194;SDS011;64964;48.694;21.206;2023-09-12T12:02:59;11.80;;;5.80;;
76194;SDS011;64964;48.694;21.206;2023-09-12T12:05:24;9.75;;;5.20;;
76194;SDS011;64964;48.694;21.206;2023-09-12T12:07:50;12.97;;;5.17;;
76194;SDS011;64964;48.694;21.206;2023-09-12T12:10:18;9.67;;;5.40;;
76194;SDS011;64964;48.694;21.206;2023-09-12T12:12:44;8.55;;;5.25;;
76194;SDS011;64964;48.694;21.206;2023-09-12T12:15:11;10.70;;;5.28;;
76194;SDS011;64964;48.694;21.206;2023-09-12T12:17:37;9.07;;;5.10;;
76194;SDS011;64964;48.694;21.206;2023-09-12T12:20:06;7.25;;;4.70;;
76194;SDS011;64964;48.694;21.206;2023-09-12T12:22:33;10.63;;;4.93;;
76194;SDS011;64964;48.694;21.206;2023-09-12T12:25:05;10.93;;;5.43;;
76194;SDS011;64964;48.694;21.206;2023-09-12T12:27:37;9.98;;;4.95;;
76194;SDS011;64964;48.694;21.206;2023-09-12T12:30:07;10.00;;;5.32;;
76194;SDS011;64964;48.694;21.206;2023-09-12T12:32:33;10.65;;;5.50;;
76194;SDS011;64964;48.694;21.206;2023-09-12T12:34:59;9.63;;;5.20;;
76194;SDS011;64964;48.694;21.206;2023-09-12T12:37:29;10.25;;;5.70;;
76194;SDS011;64964;48.694;21.206;2023-09-12T12:39:58;9.50;;;4.95;;
76194;SDS011;64964;48.694;21.206;2023-09-12T12:42:24;12.80;;;5.80;;
76194;SDS011;64964;48.694;21.206;2023-09-12T12:44:54;11.65;;;5.28;;
76194;SDS011;64964;48.694;21.206;2023-09-12T12:47:20;13.00;;;5.70;;
76194;SDS011;64964;48.694;21.206;2023-09-12T12:49:46;13.33;;;5.53;;
76194;SDS011;64964;48.694;21.206;2023-09-12T12:52:16;10.27;;;5.25;;
76194;SDS011;64964;48.694;21.206;2023-09-12T12:54:42;8.27;;;5.20;;
76194;SDS011;64964;48.694;21.206;2023-09-12T12:57:08;7.83;;;5.17;;
76194;SDS011;64964;48.694;21.206;2023-09-12T12:59:37;12.23;;;5.00;;
76194;SDS011;64964;48.694;21.206;2023-09-12T13:02:03;9.35;;;4.55;;
76194;SDS011;64964;48.694;21.206;2023-09-12T13:04:34;11.32;;;5.88;;
76194;SDS011;64964;48.694;21.206;2023-09-12T13:07:02;11.43;;;4.75;;
76194;SDS011;64964;48.694;21.206;2023-09-12T13:09:27;11.70;;;5.03;;
76194;SDS011;64964;48.694;21.206;2023-09-12T13:11:52;13.57;;;5.33;;
76194;SDS011;64964;48.694;21.206;2023-09-12T13:14:18;11.13;;;4.95;;
76194;SDS011;64964;48.694;21.206;2023-09-12T13:16:44;8.50;;;4.50;;
76194;SDS011;64964;48.694;21.206;2023-09-12T13:19:10;11.93;;;5.60;;
76194;SDS011;64964;48.694;21.206;2023-09-12T13:21:38;7.85;;;5.07;;
76194;SDS011;64964;48.694;21.206;2023-09-12T13:24:04;9.63;;;5.00;;
76194;SDS011;64964;48.694;21.206;2023-09-12T13:26:29;14.20;;;5.43;;
76194;SDS011;64964;48.694;21.206;2023-09-12T13:28:56;12.23;;;5.30;;
76194;SDS011;64964;48.694;21.206;2023-09-12T13:31:22;12.03;;;5.10;;
76194;SDS011;64964;48.694;21.206;2023-09-12T13:33:47;12.27;;;5.40;;
76194;SDS011;64964;48.694;21.206;2023-09-12T13:36:12;10.27;;;4.90;;
76194;SDS011;64964;48.694;21.206;2023-09-12T13:38:38;10.40;;;4.83;;
76194;SDS011;64964;48.694;21.206;2023-09-12T13:41:03;13.77;;;5.87;;
76194;SDS011;64964;48.694;21.206;2023-09-12T13:43:29;11.37;;;5.20;;
76194;SDS011;64964;48.694;21.206;2023-09-12T13:45:55;9.43;;;5.03;;
76194;SDS011;64964;48.694;21.206;2023-09-12T13:48:20;12.43;;;5.40;;
76194;SDS011;64964;48.694;21.206;2023-09-12T13:50:46;10.70;;;5.50;;
76194;SDS011;64964;48.694;21.206;2023-09-12T13:53:11;12.60;;;5.60;;
76194;SDS011;64964;48.694;21.206;2023-09-12T13:55:37;10.40;;;5.30;;
76194;SDS011;64964;48.694;21.206;2023-09-12T13:58:03;8.68;;;5.40;;
76194;SDS011;64964;48.694;21.206;2023-09-12T14:00:29;10.75;;;5.60;;
76194;SDS011;64964;48.694;21.206;2023-09-12T14:02:55;9.77;;;5.40;;
76194;SDS011;64964;48.694;21.206;2023-09-12T14:05:21;11.30;;;5.00;;
76194;SDS011;64964;48.694;21.206;2023-09-12T14:07:46;9.05;;;5.07;;
76194;SDS011;64964;48.694;21.206;2023-09-12T14:10:12;11.70;;;5.40;;
76194;SDS011;64964;48.694;21.206;2023-09-12T14:12:38;8.85;;;5.05;;
76194;SDS011;64964;48.694;21.206;2023-09-12T14:15:03;9.67;;;4.97;;
76194;SDS011;64964;48.694;21.206;2023-09-12T14:17:31;9.65;;;5.50;;
76194;SDS011;64964;48.694;21.206;2023-09-12T14:19:56;9.70;;;5.67;;
76194;SDS011;64964;48.694;21.206;2023-09-12T14:22:21;7.53;;;5.05;;
76194;SDS011;64964;48.694;21.206;2023-09-12T14:24:47;10.30;;;5.30;;
76194;SDS011;64964;48.694;21.206;2023-09-12T14:27:12;7.67;;;4.40;;
76194;SDS011;64964;48.694;21.206;2023-09-12T14:29:38;15.65;;;5.63;;
76194;SDS011;64964;48.694;21.206;2023-09-12T14:32:03;10.80;;;4.77;;
76194;SDS011;64964;48.694;21.206;2023-09-12T14:34:29;10.00;;;5.30;;